sensor_id;sensor_type;location;lat;lon;timestamp;P1;durP1;ratioP1;P2;durP2;ratioP2
69185;SDS011;56298;49.246;9.410;2023-02-15T00:01:31;27.52;;;15.02;;
69185;SDS011;56298;49.246;9.410;2023-02-15T00:03:57;30.90;;;18.48;;
69185;SDS011;56298;49.246;9.410;2023-02-15T00:06:22;29.67;;;16.00;;
69185;SDS011;56298;49.246;9.410;2023-02-15T00:08:48;28.95;;;14.75;;
69185;SDS011;56298;49.246;9.410;2023-02-15T00:11:14;28.40;;;14.63;;
69185;SDS011;56298;49.246;9.410;2023-02-15T00:13:41;27.00;;;14.60;;
69185;SDS011;56298;49.246;9.410;2023-02-15T00:16:07;29.73;;;15.98;;
69185;SDS011;56298;49.246;9.410;2023-02-15T00:18:34;28.45;;;15.32;;
69185;SDS011;56298;49.246;9.410;2023-02-15T00:21:03;26.27;;;14.03;;
69185;SDS011;56298;49.246;9.410;2023-02-15T00:23:30;24.95;;;14.13;;
69185;SDS011;56298;49.246;9.410;2023-02-15T00:26:11;28.13;;;15.30;;
69185;SDS011;56298;49.246;9.410;2023-02-15T00:28:37;29.70;;;15.30;;
69185;SDS011;56298;49.246;9.410;2023-02-15T00:31:06;27.88;;;14.38;;
69185;SDS011;56298;49.246;9.410;2023-02-15T00:33:33;31.23;;;15.30;;
69185;SDS011;56298;49.246;9.410;2023-02-15T00:35:59;26.77;;;14.20;;
69185;SDS011;56298;49.246;9.410;2023-02-15T00:38:28;28.00;;;15.40;;
69185;SDS011;56298;49.246;9.410;2023-02-15T00:40:54;28.65;;;15.07;;
69185;SDS011;56298;49.246;9.410;2023-02-15T00:43:23;31.70;;;16.93;;
69185;SDS011;56298;49.246;9.410;2023-02-15T00:45:49;29.33;;;16.65;;
69185;SDS011;56298;49.246;9.410;2023-02-15T00:48:15;29.77;;;16.23;;
69185;SDS011;56298;49.246;9.410;2023-02-15T00:50:40;30.03;;;15.87;;
69185;SDS011;56298;49.246;9.410;2023-02-15T00:53:06;28.50;;;14.87;;
69185;SDS011;56298;49.246;9.410;2023-02-15T00:55:31;29.53;;;14.97;;
69185;SDS011;56298;49.246;9.410;2023-02-15T00:57:56;28.70;;;15.17;;
69185;SDS011;56298;49.246;9.410;2023-02-15T01:00:22;28.97;;;15.37;;
69185;SDS011;56298;49.246;9.410;2023-02-15T01:02:47;27.58;;;15.40;;
69185;SDS011;56298;49.246;9.410;2023-02-15T01:05:12;28.57;;;15.70;;
69185;SDS011;56298;49.246;9.410;2023-02-15T01:07:38;30.03;;;15.27;;
69185;SDS011;56298;49.246;9.410;2023-02-15T01:10:04;28.60;;;14.77;;
69185;SDS011;56298;49.246;9.410;2023-02-15T01:12:33;28.92;;;16.20;;
69185;SDS011;56298;49.246;9.410;2023-02-15T01:14:59;30.57;;;17.47;;
69185;SDS011;56298;49.246;9.410;2023-02-15T01:17:24;28.23;;;18.55;;
69185;SDS011;56298;49.246;9.410;2023-02-15T01:19:49;32.60;;;18.67;;
69185;SDS011;56298;49.246;9.410;2023-02-15T01:22:16;28.97;;;19.53;;
69185;SDS011;56298;49.246;9.410;2023-02-15T01:24:42;31.63;;;22.50;;
69185;SDS011;56298;49.246;9.410;2023-02-15T01:27:07;37.40;;;24.48;;
69185;SDS011;56298;49.246;9.410;2023-02-15T01:29:32;35.97;;;24.70;;
69185;SDS011;56298;49.246;9.410;2023-02-15T01:31:58;33.30;;;22.30;;
69185;SDS011;56298;49.246;9.410;2023-02-15T01:34:23;31.93;;;21.73;;
69185;SDS011;56298;49.246;9.410;2023-02-15T01:36:48;34.77;;;20.90;;
69185;SDS011;56298;49.246;9.410;2023-02-15T01:39:13;33.77;;;25.07;;
69185;SDS011;56298;49.246;9.410;2023-02-15T01:41:39;35.80;;;26.20;;
69185;SDS011;56298;49.246;9.410;2023-02-15T01:44:40;35.30;;;25.80;;
69185;SDS011;56298;49.246;9.410;2023-02-15T01:47:33;35.17;;;26.37;;
69185;SDS011;56298;49.246;9.410;2023-02-15T01:52:58;34.30;;;22.10;;
69185;SDS011;56298;49.246;9.410;2023-02-15T01:55:27;30.25;;;18.58;;
69185;SDS011;56298;49.246;9.410;2023-02-15T01:57:57;27.30;;;15.70;;
69185;SDS011;56298;49.246;9.410;2023-02-15T02:00:22;30.23;;;16.60;;
69185;SDS011;56298;49.246;9.410;2023-02-15T02:02:48;30.03;;;17.60;;
69185;SDS011;56298;49.246;9.410;2023-02-15T02:05:17;31.60;;;19.92;;
69185;SDS011;56298;49.246;9.410;2023-02-15T02:07:43;30.93;;;18.33;;
69185;SDS011;56298;49.246;9.410;2023-02-15T02:10:12;32.77;;;17.53;;
69185;SDS011;56298;49.246;9.410;2023-02-15T02:12:40;33.13;;;19.23;;
69185;SDS011;56298;49.246;9.410;2023-02-15T02:15:08;32.40;;;18.90;;
69185;SDS011;56298;49.246;9.410;2023-02-15T02:26:37;32.03;;;18.67;;
69185;SDS011;56298;49.246;9.410;2023-02-15T02:31:49;33.70;;;23.40;;
69185;SDS011;56298;49.246;9.410;2023-02-15T02:37:19;33.75;;;21.92;;
69185;SDS011;56298;49.246;9.410;2023-02-15T02:39:52;33.28;;;22.52;;
69185;SDS011;56298;49.246;9.410;2023-02-15T02:45:02;36.72;;;26.38;;
69185;SDS011;56298;49.246;9.410;2023-02-15T02:47:32;39.05;;;25.80;;
69185;SDS011;56298;49.246;9.410;2023-02-15T02:50:05;33.38;;;22.95;;
69185;SDS011;56298;49.246;9.410;2023-02-15T02:52:41;33.95;;;24.13;;
69185;SDS011;56298;49.246;9.410;2023-02-15T02:57:58;33.72;;;25.25;;
69185;SDS011;56298;49.246;9.410;2023-02-15T03:00:25;32.38;;;23.88;;
69185;SDS011;56298;49.246;9.410;2023-02-15T03:02:54;33.87;;;24.90;;
69185;SDS011;56298;49.246;9.410;2023-02-15T03:05:29;32.35;;;25.63;;
69185;SDS011;56298;49.246;9.410;2023-02-15T03:07:56;32.15;;;24.15;;
69185;SDS011;56298;49.246;9.410;2023-02-15T03:10:30;33.30;;;23.45;;
69185;SDS011;56298;49.246;9.410;2023-02-15T03:12:57;32.50;;;22.98;;
69185;SDS011;56298;49.246;9.410;2023-02-15T03:15:25;30.43;;;21.43;;
69185;SDS011;56298;49.246;9.410;2023-02-15T03:18:14;32.40;;;23.77;;
69185;SDS011;56298;49.246;9.410;2023-02-15T03:20:42;35.17;;;23.92;;
69185;SDS011;56298;49.246;9.410;2023-02-15T03:23:11;32.35;;;23.17;;
69185;SDS011;56298;49.246;9.410;2023-02-15T03:25:41;30.60;;;22.65;;
69185;SDS011;56298;49.246;9.410;2023-02-15T03:28:09;32.25;;;23.35;;
69185;SDS011;56298;49.246;9.410;2023-02-15T03:30:37;29.90;;;22.02;;
69185;SDS011;56298;49.246;9.410;2023-02-15T03:33:06;32.55;;;21.75;;
69185;SDS011;56298;49.246;9.410;2023-02-15T03:35:36;31.98;;;19.17;;
69185;SDS011;56298;49.246;9.410;2023-02-15T03:38:08;30.35;;;20.10;;
69185;SDS011;56298;49.246;9.410;2023-02-15T03:40:36;30.98;;;19.02;;
69185;SDS011;56298;49.246;9.410;2023-02-15T03:46:24;33.60;;;22.95;;
69185;SDS011;56298;49.246;9.410;2023-02-15T03:49:02;31.07;;;22.63;;
69185;SDS011;56298;49.246;9.410;2023-02-15T03:51:48;31.90;;;21.70;;
69185;SDS011;56298;49.246;9.410;2023-02-15T03:54:22;31.00;;;22.13;;
69185;SDS011;56298;49.246;9.410;2023-02-15T04:00:24;32.40;;;21.57;;
69185;SDS011;56298;49.246;9.410;2023-02-15T04:05:45;37.08;;;25.95;;
69185;SDS011;56298;49.246;9.410;2023-02-15T04:08:11;34.60;;;24.03;;
69185;SDS011;56298;49.246;9.410;2023-02-15T04:10:37;30.38;;;22.48;;
69185;SDS011;56298;49.246;9.410;2023-02-15T04:13:18;34.30;;;24.20;;
69185;SDS011;56298;49.246;9.410;2023-02-15T04:15:44;31.07;;;19.70;;
69185;SDS011;56298;49.246;9.410;2023-02-15T04:18:29;32.58;;;20.30;;
69185;SDS011;56298;49.246;9.410;2023-02-15T04:21:17;32.33;;;21.45;;
69185;SDS011;56298;49.246;9.410;2023-02-15T04:24:02;29.23;;;18.27;;
69185;SDS011;56298;49.246;9.410;2023-02-15T04:26:46;28.50;;;16.70;;
69185;SDS011;56298;49.246;9.410;2023-02-15T04:29:17;32.88;;;20.42;;
69185;SDS011;56298;49.246;9.410;2023-02-15T04:31:43;32.53;;;22.55;;
69185;SDS011;56298;49.246;9.410;2023-02-15T04:34:09;34.00;;;23.00;;
69185;SDS011;56298;49.246;9.410;2023-02-15T04:36:35;33.38;;;23.70;;
69185;SDS011;56298;49.246;9.410;2023-02-15T04:39:00;36.50;;;25.40;;
69185;SDS011;56298;49.246;9.410;2023-02-15T04:41:26;37.23;;;27.70;;
69185;SDS011;56298;49.246;9.410;2023-02-15T04:43:51;35.17;;;26.43;;
69185;SDS011;56298;49.246;9.410;2023-02-15T04:46:16;35.40;;;26.70;;
69185;SDS011;56298;49.246;9.410;2023-02-15T04:48:41;35.67;;;25.10;;
69185;SDS011;56298;49.246;9.410;2023-02-15T04:51:07;38.70;;;26.53;;
69185;SDS011;56298;49.246;9.410;2023-02-15T04:53:33;34.27;;;26.43;;
69185;SDS011;56298;49.246;9.410;2023-02-15T04:55:58;33.17;;;24.83;;
69185;SDS011;56298;49.246;9.410;2023-02-15T04:58:24;34.00;;;24.33;;
69185;SDS011;56298;49.246;9.410;2023-02-15T05:00:49;32.67;;;24.70;;
69185;SDS011;56298;49.246;9.410;2023-02-15T05:03:14;33.40;;;24.67;;
69185;SDS011;56298;49.246;9.410;2023-02-15T05:05:40;36.53;;;26.03;;
69185;SDS011;56298;49.246;9.410;2023-02-15T05:08:05;36.10;;;26.73;;
69185;SDS011;56298;49.246;9.410;2023-02-15T05:10:31;37.78;;;26.58;;
69185;SDS011;56298;49.246;9.410;2023-02-15T05:12:56;34.80;;;24.77;;
69185;SDS011;56298;49.246;9.410;2023-02-15T05:15:21;32.97;;;23.00;;
69185;SDS011;56298;49.246;9.410;2023-02-15T05:17:46;34.63;;;24.53;;
69185;SDS011;56298;49.246;9.410;2023-02-15T05:20:12;35.17;;;24.63;;
69185;SDS011;56298;49.246;9.410;2023-02-15T05:22:37;35.60;;;24.77;;
69185;SDS011;56298;49.246;9.410;2023-02-15T05:25:02;35.50;;;24.48;;
69185;SDS011;56298;49.246;9.410;2023-02-15T05:27:46;34.20;;;23.20;;
69185;SDS011;56298;49.246;9.410;2023-02-15T05:30:30;36.67;;;24.80;;
69185;SDS011;56298;49.246;9.410;2023-02-15T05:32:56;34.33;;;24.53;;
69185;SDS011;56298;49.246;9.410;2023-02-15T05:35:21;33.37;;;22.17;;
69185;SDS011;56298;49.246;9.410;2023-02-15T05:37:46;36.37;;;24.43;;
69185;SDS011;56298;49.246;9.410;2023-02-15T05:40:12;36.20;;;24.37;;
69185;SDS011;56298;49.246;9.410;2023-02-15T05:42:37;35.83;;;23.83;;
69185;SDS011;56298;49.246;9.410;2023-02-15T05:45:02;36.67;;;25.03;;
69185;SDS011;56298;49.246;9.410;2023-02-15T05:47:28;34.78;;;23.50;;
69185;SDS011;56298;49.246;9.410;2023-02-15T05:49:54;33.88;;;20.85;;
69185;SDS011;56298;49.246;9.410;2023-02-15T05:52:19;33.33;;;19.40;;
69185;SDS011;56298;49.246;9.410;2023-02-15T05:54:44;29.97;;;19.73;;
69185;SDS011;56298;49.246;9.410;2023-02-15T05:57:10;30.70;;;18.40;;
69185;SDS011;56298;49.246;9.410;2023-02-15T05:59:35;30.53;;;17.53;;
69185;SDS011;56298;49.246;9.410;2023-02-15T06:02:00;34.07;;;19.00;;
69185;SDS011;56298;49.246;9.410;2023-02-15T06:04:25;32.37;;;20.47;;
69185;SDS011;56298;49.246;9.410;2023-02-15T06:06:51;34.30;;;20.07;;
69185;SDS011;56298;49.246;9.410;2023-02-15T06:09:16;31.20;;;20.03;;
69185;SDS011;56298;49.246;9.410;2023-02-15T06:11:43;33.15;;;21.45;;
69185;SDS011;56298;49.246;9.410;2023-02-15T06:14:09;36.10;;;23.27;;
69185;SDS011;56298;49.246;9.410;2023-02-15T06:16:35;35.27;;;23.30;;
69185;SDS011;56298;49.246;9.410;2023-02-15T06:19:00;34.63;;;22.77;;
69185;SDS011;56298;49.246;9.410;2023-02-15T06:21:26;30.55;;;20.33;;
69185;SDS011;56298;49.246;9.410;2023-02-15T06:23:52;30.95;;;19.20;;
69185;SDS011;56298;49.246;9.410;2023-02-15T06:26:17;31.57;;;20.03;;
69185;SDS011;56298;49.246;9.410;2023-02-15T06:28:43;29.23;;;17.67;;
69185;SDS011;56298;49.246;9.410;2023-02-15T06:31:08;31.27;;;18.67;;
69185;SDS011;56298;49.246;9.410;2023-02-15T06:33:33;33.27;;;20.73;;
69185;SDS011;56298;49.246;9.410;2023-02-15T06:35:59;29.63;;;18.70;;
69185;SDS011;56298;49.246;9.410;2023-02-15T06:38:24;28.70;;;16.35;;
69185;SDS011;56298;49.246;9.410;2023-02-15T06:40:49;26.15;;;15.18;;
69185;SDS011;56298;49.246;9.410;2023-02-15T06:43:15;30.43;;;16.70;;
69185;SDS011;56298;49.246;9.410;2023-02-15T06:45:40;28.47;;;17.43;;
69185;SDS011;56298;49.246;9.410;2023-02-15T06:48:06;28.43;;;17.70;;
69185;SDS011;56298;49.246;9.410;2023-02-15T06:50:32;29.48;;;18.02;;
69185;SDS011;56298;49.246;9.410;2023-02-15T06:52:58;29.80;;;19.85;;
69185;SDS011;56298;49.246;9.410;2023-02-15T06:55:24;30.43;;;21.27;;
69185;SDS011;56298;49.246;9.410;2023-02-15T06:57:50;30.92;;;21.98;;
69185;SDS011;56298;49.246;9.410;2023-02-15T07:00:15;34.80;;;23.27;;
69185;SDS011;56298;49.246;9.410;2023-02-15T07:02:40;31.03;;;22.07;;
69185;SDS011;56298;49.246;9.410;2023-02-15T07:05:06;30.43;;;23.20;;
69185;SDS011;56298;49.246;9.410;2023-02-15T07:07:31;31.97;;;23.40;;
69185;SDS011;56298;49.246;9.410;2023-02-15T07:09:56;31.77;;;23.17;;
69185;SDS011;56298;49.246;9.410;2023-02-15T07:12:21;31.17;;;21.73;;
69185;SDS011;56298;49.246;9.410;2023-02-15T07:15:05;28.20;;;19.05;;
69185;SDS011;56298;49.246;9.410;2023-02-15T07:17:32;30.70;;;20.30;;
69185;SDS011;56298;49.246;9.410;2023-02-15T07:19:58;30.30;;;21.23;;
69185;SDS011;56298;49.246;9.410;2023-02-15T07:22:23;27.90;;;15.60;;
69185;SDS011;56298;49.246;9.410;2023-02-15T07:24:48;26.27;;;13.40;;
69185;SDS011;56298;49.246;9.410;2023-02-15T07:27:14;25.80;;;13.80;;
69185;SDS011;56298;49.246;9.410;2023-02-15T07:29:39;26.73;;;14.00;;
69185;SDS011;56298;49.246;9.410;2023-02-15T07:32:05;29.23;;;14.70;;
69185;SDS011;56298;49.246;9.410;2023-02-15T07:34:30;28.33;;;14.97;;
69185;SDS011;56298;49.246;9.410;2023-02-15T07:36:55;29.38;;;15.10;;
69185;SDS011;56298;49.246;9.410;2023-02-15T07:39:20;27.60;;;14.77;;
69185;SDS011;56298;49.246;9.410;2023-02-15T07:41:46;26.30;;;14.03;;
69185;SDS011;56298;49.246;9.410;2023-02-15T07:44:11;26.27;;;13.57;;
69185;SDS011;56298;49.246;9.410;2023-02-15T07:46:38;25.50;;;14.23;;
69185;SDS011;56298;49.246;9.410;2023-02-15T07:49:04;27.87;;;14.07;;
69185;SDS011;56298;49.246;9.410;2023-02-15T07:51:29;28.70;;;14.47;;
69185;SDS011;56298;49.246;9.410;2023-02-15T07:53:54;25.60;;;13.87;;
69185;SDS011;56298;49.246;9.410;2023-02-15T07:56:20;27.00;;;14.30;;
69185;SDS011;56298;49.246;9.410;2023-02-15T07:58:45;28.73;;;14.70;;
69185;SDS011;56298;49.246;9.410;2023-02-15T08:01:17;26.10;;;14.27;;
69185;SDS011;56298;49.246;9.410;2023-02-15T08:03:43;26.85;;;14.52;;
69185;SDS011;56298;49.246;9.410;2023-02-15T08:06:08;25.63;;;13.40;;
69185;SDS011;56298;49.246;9.410;2023-02-15T08:08:36;27.23;;;14.02;;
69185;SDS011;56298;49.246;9.410;2023-02-15T08:11:06;25.27;;;14.00;;
69185;SDS011;56298;49.246;9.410;2023-02-15T08:14:09;25.42;;;13.68;;
69185;SDS011;56298;49.246;9.410;2023-02-15T08:16:41;24.92;;;13.60;;
69185;SDS011;56298;49.246;9.410;2023-02-15T08:19:08;24.95;;;13.48;;
69185;SDS011;56298;49.246;9.410;2023-02-15T08:22:06;24.30;;;13.35;;
69185;SDS011;56298;49.246;9.410;2023-02-15T08:24:32;25.90;;;13.60;;
69185;SDS011;56298;49.246;9.410;2023-02-15T08:26:59;24.50;;;13.23;;
69185;SDS011;56298;49.246;9.410;2023-02-15T08:29:28;24.27;;;13.43;;
69185;SDS011;56298;49.246;9.410;2023-02-15T08:31:56;23.63;;;13.23;;
69185;SDS011;56298;49.246;9.410;2023-02-15T08:34:23;24.30;;;13.17;;
69185;SDS011;56298;49.246;9.410;2023-02-15T08:36:49;24.13;;;12.32;;
69185;SDS011;56298;49.246;9.410;2023-02-15T08:39:15;23.37;;;12.77;;
69185;SDS011;56298;49.246;9.410;2023-02-15T08:41:42;22.33;;;12.48;;
69185;SDS011;56298;49.246;9.410;2023-02-15T08:44:09;23.35;;;12.52;;
69185;SDS011;56298;49.246;9.410;2023-02-15T08:46:37;21.83;;;12.25;;
69185;SDS011;56298;49.246;9.410;2023-02-15T08:49:04;20.83;;;12.02;;
69185;SDS011;56298;49.246;9.410;2023-02-15T08:51:31;23.40;;;12.63;;
69185;SDS011;56298;49.246;9.410;2023-02-15T08:54:03;21.90;;;12.55;;
69185;SDS011;56298;49.246;9.410;2023-02-15T08:56:31;21.50;;;12.23;;
69185;SDS011;56298;49.246;9.410;2023-02-15T08:58:58;22.35;;;12.38;;
69185;SDS011;56298;49.246;9.410;2023-02-15T09:01:28;22.10;;;12.47;;
69185;SDS011;56298;49.246;9.410;2023-02-15T09:03:56;22.13;;;12.90;;
69185;SDS011;56298;49.246;9.410;2023-02-15T09:06:23;23.70;;;13.50;;
69185;SDS011;56298;49.246;9.410;2023-02-15T09:08:48;24.17;;;13.13;;
69185;SDS011;56298;49.246;9.410;2023-02-15T09:11:15;24.27;;;13.55;;
69185;SDS011;56298;49.246;9.410;2023-02-15T09:13:47;25.95;;;14.27;;
69185;SDS011;56298;49.246;9.410;2023-02-15T09:16:13;24.87;;;13.60;;
69185;SDS011;56298;49.246;9.410;2023-02-15T09:18:38;24.37;;;13.50;;
69185;SDS011;56298;49.246;9.410;2023-02-15T09:21:08;22.83;;;12.88;;
69185;SDS011;56298;49.246;9.410;2023-02-15T09:23:35;23.55;;;12.85;;
69185;SDS011;56298;49.246;9.410;2023-02-15T09:26:02;25.40;;;13.80;;
69185;SDS011;56298;49.246;9.410;2023-02-15T09:28:28;25.47;;;13.63;;
69185;SDS011;56298;49.246;9.410;2023-02-15T09:30:54;24.17;;;13.07;;
69185;SDS011;56298;49.246;9.410;2023-02-15T09:33:20;23.33;;;13.70;;
69185;SDS011;56298;49.246;9.410;2023-02-15T09:35:46;24.42;;;13.32;;
69185;SDS011;56298;49.246;9.410;2023-02-15T09:38:12;23.90;;;13.67;;
69185;SDS011;56298;49.246;9.410;2023-02-15T09:40:39;25.35;;;14.25;;
69185;SDS011;56298;49.246;9.410;2023-02-15T09:43:17;23.58;;;13.50;;
69185;SDS011;56298;49.246;9.410;2023-02-15T09:46:09;25.38;;;14.05;;
69185;SDS011;56298;49.246;9.410;2023-02-15T09:48:49;23.60;;;13.03;;
69185;SDS011;56298;49.246;9.410;2023-02-15T09:51:22;23.93;;;12.93;;
69185;SDS011;56298;49.246;9.410;2023-02-15T09:54:04;22.97;;;13.43;;
69185;SDS011;56298;49.246;9.410;2023-02-15T09:56:51;21.10;;;12.60;;
69185;SDS011;56298;49.246;9.410;2023-02-15T10:02:44;22.60;;;13.38;;
69185;SDS011;56298;49.246;9.410;2023-02-15T10:07:56;23.88;;;13.50;;
69185;SDS011;56298;49.246;9.410;2023-02-15T10:10:47;21.17;;;12.80;;
69185;SDS011;56298;49.246;9.410;2023-02-15T10:15:52;22.43;;;13.30;;
69185;SDS011;56298;49.246;9.410;2023-02-15T10:24:06;23.35;;;13.35;;
69185;SDS011;56298;49.246;9.410;2023-02-15T10:26:44;22.83;;;13.45;;
69185;SDS011;56298;49.246;9.410;2023-02-15T10:29:29;22.43;;;13.13;;
69185;SDS011;56298;49.246;9.410;2023-02-15T10:37:40;22.65;;;14.00;;
69185;SDS011;56298;49.246;9.410;2023-02-15T10:40:39;22.77;;;13.82;;
69185;SDS011;56298;49.246;9.410;2023-02-15T10:43:24;23.97;;;14.60;;
69185;SDS011;56298;49.246;9.410;2023-02-15T11:07:59;27.07;;;15.97;;
69185;SDS011;56298;49.246;9.410;2023-02-15T11:10:34;25.60;;;14.90;;
69185;SDS011;56298;49.246;9.410;2023-02-15T11:13:04;21.93;;;14.70;;
69185;SDS011;56298;49.246;9.410;2023-02-15T11:15:36;24.83;;;14.93;;
69185;SDS011;56298;49.246;9.410;2023-02-15T11:18:13;23.10;;;14.98;;
69185;SDS011;56298;49.246;9.410;2023-02-15T11:20:58;25.02;;;14.85;;
69185;SDS011;56298;49.246;9.410;2023-02-15T11:23:26;23.88;;;15.13;;
69185;SDS011;56298;49.246;9.410;2023-02-15T11:31:21;23.57;;;15.10;;
69185;SDS011;56298;49.246;9.410;2023-02-15T11:33:50;25.00;;;15.47;;
69185;SDS011;56298;49.246;9.410;2023-02-15T11:36:22;22.20;;;14.90;;
69185;SDS011;56298;49.246;9.410;2023-02-15T11:38:52;23.27;;;14.82;;
69185;SDS011;56298;49.246;9.410;2023-02-15T11:41:24;24.50;;;15.33;;
69185;SDS011;56298;49.246;9.410;2023-02-15T11:44:03;22.85;;;15.20;;
69185;SDS011;56298;49.246;9.410;2023-02-15T11:46:33;23.05;;;15.43;;
69185;SDS011;56298;49.246;9.410;2023-02-15T11:48:59;23.63;;;15.90;;
69185;SDS011;56298;49.246;9.410;2023-02-15T11:51:24;23.83;;;15.87;;
69185;SDS011;56298;49.246;9.410;2023-02-15T11:53:52;29.77;;;19.27;;
69185;SDS011;56298;49.246;9.410;2023-02-15T11:56:19;26.93;;;16.67;;
69185;SDS011;56298;49.246;9.410;2023-02-15T11:58:53;26.48;;;16.42;;
69185;SDS011;56298;49.246;9.410;2023-02-15T12:04:04;26.15;;;16.95;;
69185;SDS011;56298;49.246;9.410;2023-02-15T12:06:35;25.67;;;16.38;;
69185;SDS011;56298;49.246;9.410;2023-02-15T12:09:12;26.13;;;16.20;;
69185;SDS011;56298;49.246;9.410;2023-02-15T12:14:50;26.83;;;16.93;;
69185;SDS011;56298;49.246;9.410;2023-02-15T12:17:18;29.88;;;17.63;;
69185;SDS011;56298;49.246;9.410;2023-02-15T12:19:46;24.50;;;16.58;;
69185;SDS011;56298;49.246;9.410;2023-02-15T12:22:20;28.40;;;16.70;;
69185;SDS011;56298;49.246;9.410;2023-02-15T12:24:48;28.60;;;16.35;;
69185;SDS011;56298;49.246;9.410;2023-02-15T12:27:18;26.50;;;17.20;;
69185;SDS011;56298;49.246;9.410;2023-02-15T12:32:35;30.15;;;18.60;;
69185;SDS011;56298;49.246;9.410;2023-02-15T12:35:29;29.43;;;17.23;;
69185;SDS011;56298;49.246;9.410;2023-02-15T12:38:02;24.45;;;16.52;;
69185;SDS011;56298;49.246;9.410;2023-02-15T12:40:30;29.23;;;17.73;;
69185;SDS011;56298;49.246;9.410;2023-02-15T12:42:58;27.75;;;17.20;;
69185;SDS011;56298;49.246;9.410;2023-02-15T12:45:28;26.17;;;15.83;;
69185;SDS011;56298;49.246;9.410;2023-02-15T12:50:42;27.08;;;17.50;;
69185;SDS011;56298;49.246;9.410;2023-02-15T12:53:14;29.23;;;16.98;;
69185;SDS011;56298;49.246;9.410;2023-02-15T12:55:56;28.50;;;17.88;;
69185;SDS011;56298;49.246;9.410;2023-02-15T12:58:24;26.17;;;17.17;;
69185;SDS011;56298;49.246;9.410;2023-02-15T13:01:03;25.35;;;16.95;;
69185;SDS011;56298;49.246;9.410;2023-02-15T13:03:37;30.40;;;18.92;;
69185;SDS011;56298;49.246;9.410;2023-02-15T13:06:13;29.00;;;19.40;;
69185;SDS011;56298;49.246;9.410;2023-02-15T13:08:46;26.47;;;16.73;;
69185;SDS011;56298;49.246;9.410;2023-02-15T13:11:15;27.10;;;17.27;;
69185;SDS011;56298;49.246;9.410;2023-02-15T13:13:51;26.48;;;17.02;;
69185;SDS011;56298;49.246;9.410;2023-02-15T13:16:27;28.13;;;17.58;;
69185;SDS011;56298;49.246;9.410;2023-02-15T13:19:09;24.75;;;16.52;;
69185;SDS011;56298;49.246;9.410;2023-02-15T13:21:40;26.65;;;17.38;;
69185;SDS011;56298;49.246;9.410;2023-02-15T13:24:18;26.02;;;17.35;;
69185;SDS011;56298;49.246;9.410;2023-02-15T13:26:47;27.25;;;17.23;;
69185;SDS011;56298;49.246;9.410;2023-02-15T13:29:18;27.05;;;17.15;;
69185;SDS011;56298;49.246;9.410;2023-02-15T13:31:49;25.83;;;17.15;;
69185;SDS011;56298;49.246;9.410;2023-02-15T13:34:17;27.42;;;17.38;;
69185;SDS011;56298;49.246;9.410;2023-02-15T13:40:02;26.52;;;17.00;;
69185;SDS011;56298;49.246;9.410;2023-02-15T13:42:53;29.73;;;17.67;;
69185;SDS011;56298;49.246;9.410;2023-02-15T13:56:40;25.73;;;16.75;;
69185;SDS011;56298;49.246;9.410;2023-02-15T14:02:15;26.00;;;17.23;;
69185;SDS011;56298;49.246;9.410;2023-02-15T14:07:50;27.00;;;17.15;;
69185;SDS011;56298;49.246;9.410;2023-02-15T14:10:28;25.45;;;16.98;;
69185;SDS011;56298;49.246;9.410;2023-02-15T14:15:53;25.83;;;16.80;;
69185;SDS011;56298;49.246;9.410;2023-02-15T14:18:45;26.87;;;17.07;;
69185;SDS011;56298;49.246;9.410;2023-02-15T14:21:26;26.98;;;17.35;;
69185;SDS011;56298;49.246;9.410;2023-02-15T14:24:04;25.58;;;17.08;;
69185;SDS011;56298;49.246;9.410;2023-02-15T14:29:15;25.75;;;17.27;;
69185;SDS011;56298;49.246;9.410;2023-02-15T14:31:51;28.77;;;17.48;;
69185;SDS011;56298;49.246;9.410;2023-02-15T14:34:42;26.60;;;17.02;;
69185;SDS011;56298;49.246;9.410;2023-02-15T14:37:11;26.38;;;16.80;;
69185;SDS011;56298;49.246;9.410;2023-02-15T14:39:44;25.35;;;16.67;;
69185;SDS011;56298;49.246;9.410;2023-02-15T14:45:53;25.40;;;16.30;;
69185;SDS011;56298;49.246;9.410;2023-02-15T14:50:51;26.48;;;16.73;;
69185;SDS011;56298;49.246;9.410;2023-02-15T14:58:34;26.58;;;17.23;;
69185;SDS011;56298;49.246;9.410;2023-02-15T15:01:04;26.85;;;16.88;;
69185;SDS011;56298;49.246;9.410;2023-02-15T15:03:34;24.90;;;16.70;;
69185;SDS011;56298;49.246;9.410;2023-02-15T15:06:01;25.35;;;16.73;;
69185;SDS011;56298;49.246;9.410;2023-02-15T15:08:31;56.08;;;34.53;;
69185;SDS011;56298;49.246;9.410;2023-02-15T15:13:54;27.50;;;17.88;;
69185;SDS011;56298;49.246;9.410;2023-02-15T15:16:27;28.77;;;18.53;;
69185;SDS011;56298;49.246;9.410;2023-02-15T15:19:03;32.90;;;19.20;;
69185;SDS011;56298;49.246;9.410;2023-02-15T15:27:49;33.33;;;19.52;;
69185;SDS011;56298;49.246;9.410;2023-02-15T15:32:40;72.47;;;31.80;;
69185;SDS011;56298;49.246;9.410;2023-02-15T15:47:00;35.20;;;20.90;;
69185;SDS011;56298;49.246;9.410;2023-02-15T15:49:41;44.47;;;23.65;;
69185;SDS011;56298;49.246;9.410;2023-02-15T15:54:47;54.05;;;27.55;;
69185;SDS011;56298;49.246;9.410;2023-02-15T15:57:38;45.17;;;23.73;;
69185;SDS011;56298;49.246;9.410;2023-02-15T16:00:20;40.67;;;23.15;;
69185;SDS011;56298;49.246;9.410;2023-02-15T16:02:50;39.55;;;22.13;;
69185;SDS011;56298;49.246;9.410;2023-02-15T16:05:16;35.50;;;21.20;;
69185;SDS011;56298;49.246;9.410;2023-02-15T16:07:41;30.83;;;18.80;;
69185;SDS011;56298;49.246;9.410;2023-02-15T16:10:16;34.83;;;20.48;;
69185;SDS011;56298;49.246;9.410;2023-02-15T16:12:46;32.13;;;19.77;;
69185;SDS011;56298;49.246;9.410;2023-02-15T16:15:14;34.67;;;21.08;;
69185;SDS011;56298;49.246;9.410;2023-02-15T16:17:41;36.45;;;22.90;;
69185;SDS011;56298;49.246;9.410;2023-02-15T16:20:15;39.17;;;23.77;;
69185;SDS011;56298;49.246;9.410;2023-02-15T16:22:45;70.78;;;33.67;;
69185;SDS011;56298;49.246;9.410;2023-02-15T16:25:24;85.97;;;41.58;;
69185;SDS011;56298;49.246;9.410;2023-02-15T16:28:05;64.72;;;35.50;;
69185;SDS011;56298;49.246;9.410;2023-02-15T16:30:33;56.75;;;32.95;;
69185;SDS011;56298;49.246;9.410;2023-02-15T16:35:32;44.33;;;25.50;;
69185;SDS011;56298;49.246;9.410;2023-02-15T16:37:58;36.95;;;22.05;;
69185;SDS011;56298;49.246;9.410;2023-02-15T16:42:50;30.83;;;18.70;;
69185;SDS011;56298;49.246;9.410;2023-02-15T16:45:17;29.52;;;18.27;;
69185;SDS011;56298;49.246;9.410;2023-02-15T16:47:46;30.75;;;18.55;;
69185;SDS011;56298;49.246;9.410;2023-02-15T16:50:17;31.63;;;18.98;;
69185;SDS011;56298;49.246;9.410;2023-02-15T16:52:44;75.50;;;32.53;;
69185;SDS011;56298;49.246;9.410;2023-02-15T16:55:17;56.75;;;26.85;;
69185;SDS011;56298;49.246;9.410;2023-02-15T16:57:45;35.78;;;20.23;;
69185;SDS011;56298;49.246;9.410;2023-02-15T17:00:17;42.37;;;22.30;;
69185;SDS011;56298;49.246;9.410;2023-02-15T17:02:58;72.53;;;31.17;;
69185;SDS011;56298;49.246;9.410;2023-02-15T17:05:31;107.53;;;43.03;;
69185;SDS011;56298;49.246;9.410;2023-02-15T17:08:33;87.22;;;38.50;;
69185;SDS011;56298;49.246;9.410;2023-02-15T17:11:04;84.10;;;40.40;;
69185;SDS011;56298;49.246;9.410;2023-02-15T17:13:35;79.67;;;36.67;;
69185;SDS011;56298;49.246;9.410;2023-02-15T17:18:27;31.30;;;18.73;;
69185;SDS011;56298;49.246;9.410;2023-02-15T17:21:11;31.88;;;18.65;;